Main page
METAR-TAF:

METAR-TAF

Airports :

Bristol Airport

Bristol, England

latitude: 51-23N, longitude: 002-43W, elevation: 189 m

Current weather observation

The report was made 28 minutes ago, at 21:20 UTC
Wind 17 kt from the Northeast
Temperature 5°C
Humidity 65%
Pressure 1034 hPa
Visibility 10 km or more
Scattered clouds at a height of 4600 ft

METAR: EGGD 282120Z AUTO 04017KT 9999 SCT046 05/M01 Q1034

Time: 21:48 (21:48 UTC)

Forecast

The report was made 4 hours and 41 minutes ago, at 17:07 UTC
Forecast valid from 28 at 18 UTC to 29 at 18 UTC
Wind 17 kt from the Northeast
Visibility 10 km or more
Scattered clouds at a height of 4500 ft
Temporary
from 28 at 18 UTC to 29 at 06 UTC
Wind 20 kt from the Northeast with gusts up to 30 kt
Becoming
from 29 at 06 UTC to 29 at 09 UTC
Wind 20 kt from the Northeast with gusts up to 30 kt

TAF: EGGD 281707Z 2818/2918 05017KT 9999 SCT045 TEMPO 2818/2906 05020G30KT BECMG 2906/2909 05020G30KT

Weather observations and forecasts of more than 4000 airports (METAR and TAF reports).

The available stations are represented by yellow and red dots on the map.

Hover mouse over dot to see the name of the station.

Then click to see weather observations and forecasts.

To change the map : click on the green buttons with a black cross to zoom in, on the green button with a dash to zoom out, or on the green arrows for adjacent maps.


METAR-TAF: